sensor_id;sensor_type;location;lat;lon;timestamp;pressure;altitude;pressure_sealevel;temperature;humidity
7109;BME280;29079;41.930;25.558;2023-10-13T00:00:53;100089.25;;;10.84;71.11
7109;BME280;29079;41.930;25.558;2023-10-13T00:03:44;100082.72;;;10.66;70.44
7109;BME280;29079;41.930;25.558;2023-10-13T00:06:33;100093.84;;;10.93;70.14
7109;BME280;29079;41.930;25.558;2023-10-13T00:09:21;100091.16;;;10.93;69.92
7109;BME280;29079;41.930;25.558;2023-10-13T00:12:10;100089.38;;;10.94;69.73
7109;BME280;29079;41.930;25.558;2023-10-13T00:15:00;100085.13;;;10.80;70.30
7109;BME280;29079;41.930;25.558;2023-10-13T00:17:51;100079.06;;;10.89;69.93
7109;BME280;29079;41.930;25.558;2023-10-13T00:20:40;100081.00;;;10.87;69.89
7109;BME280;29079;41.930;25.558;2023-10-13T00:23:36;100070.97;;;10.68;70.71
7109;BME280;29079;41.930;25.558;2023-10-13T00:26:25;100076.53;;;10.76;71.29
7109;BME280;29079;41.930;25.558;2023-10-13T00:29:14;100056.16;;;11.08;76.35
7109;BME280;29079;41.930;25.558;2023-10-13T00:32:03;100073.44;;;11.04;69.03
7109;BME280;29079;41.930;25.558;2023-10-13T00:34:58;100081.88;;;10.65;70.74
7109;BME280;29079;41.930;25.558;2023-10-13T00:37:51;100078.25;;;10.66;73.64
7109;BME280;29079;41.930;25.558;2023-10-13T00:40:42;100082.13;;;10.39;71.58
7109;BME280;29079;41.930;25.558;2023-10-13T00:43:44;100066.50;;;10.57;70.75
7109;BME280;29079;41.930;25.558;2023-10-13T00:46:50;100071.09;;;10.55;71.17
7109;BME280;29079;41.930;25.558;2023-10-13T00:49:42;100071.09;;;10.67;70.66
7109;BME280;29079;41.930;25.558;2023-10-13T00:52:35;100062.84;;;10.58;71.03
7109;BME280;29079;41.930;25.558;2023-10-13T00:55:22;100062.75;;;10.37;72.22
7109;BME280;29079;41.930;25.558;2023-10-13T00:58:14;100057.94;;;10.86;71.16
7109;BME280;29079;41.930;25.558;2023-10-13T01:01:08;100038.56;;;10.16;72.99
7109;BME280;29079;41.930;25.558;2023-10-13T01:04:05;100068.81;;;10.39;72.58
7109;BME280;29079;41.930;25.558;2023-10-13T01:06:55;100080.56;;;10.48;72.50
7109;BME280;29079;41.930;25.558;2023-10-13T01:09:42;100071.72;;;10.59;71.54
7109;BME280;29079;41.930;25.558;2023-10-13T01:12:33;100065.41;;;10.49;72.79
7109;BME280;29079;41.930;25.558;2023-10-13T01:15:22;100055.56;;;10.26;73.39
7109;BME280;29079;41.930;25.558;2023-10-13T01:18:16;100066.00;;;10.52;73.42
7109;BME280;29079;41.930;25.558;2023-10-13T01:21:04;100059.22;;;10.25;72.87
7109;BME280;29079;41.930;25.558;2023-10-13T01:23:53;100042.81;;;10.07;74.13
7109;BME280;29079;41.930;25.558;2023-10-13T01:26:41;100053.16;;;10.35;73.41
7109;BME280;29079;41.930;25.558;2023-10-13T01:29:29;100044.16;;;10.13;73.51
7109;BME280;29079;41.930;25.558;2023-10-13T01:32:17;100054.34;;;10.08;74.15
7109;BME280;29079;41.930;25.558;2023-10-13T01:35:07;100053.88;;;10.25;73.97
7109;BME280;29079;41.930;25.558;2023-10-13T01:37:54;100057.84;;;10.08;74.90
7109;BME280;29079;41.930;25.558;2023-10-13T01:40:43;100040.53;;;10.37;74.06
7109;BME280;29079;41.930;25.558;2023-10-13T01:43:31;100040.53;;;10.59;72.31
7109;BME280;29079;41.930;25.558;2023-10-13T01:46:18;100056.53;;;10.59;78.07
7109;BME280;29079;41.930;25.558;2023-10-13T01:49:08;100057.28;;;10.39;74.13
7109;BME280;29079;41.930;25.558;2023-10-13T01:51:55;100055.84;;;10.46;73.32
7109;BME280;29079;41.930;25.558;2023-10-13T01:54:43;100050.50;;;10.57;72.84
7109;BME280;29079;41.930;25.558;2023-10-13T01:57:33;100050.25;;;10.49;73.70
7109;BME280;29079;41.930;25.558;2023-10-13T02:00:23;100048.78;;;10.45;72.83
7109;BME280;29079;41.930;25.558;2023-10-13T02:03:12;100043.66;;;10.31;73.37
7109;BME280;29079;41.930;25.558;2023-10-13T02:06:02;100053.84;;;10.03;74.47
7109;BME280;29079;41.930;25.558;2023-10-13T02:08:52;100044.41;;;10.21;73.90
7109;BME280;29079;41.930;25.558;2023-10-13T02:11:44;100047.22;;;10.31;74.53
7109;BME280;29079;41.930;25.558;2023-10-13T02:14:34;100042.84;;;10.30;73.63
7109;BME280;29079;41.930;25.558;2023-10-13T02:17:23;100039.06;;;9.99;74.81
7109;BME280;29079;41.930;25.558;2023-10-13T02:20:13;100024.75;;;9.88;75.02
7109;BME280;29079;41.930;25.558;2023-10-13T02:23:02;100030.09;;;10.00;75.17
7109;BME280;29079;41.930;25.558;2023-10-13T02:25:56;100044.66;;;10.41;74.21
7109;BME280;29079;41.930;25.558;2023-10-13T02:28:47;100042.88;;;11.29;74.89
7109;BME280;29079;41.930;25.558;2023-10-13T02:31:42;100034.47;;;11.76;74.11
7109;BME280;29079;41.930;25.558;2023-10-13T02:34:29;100038.47;;;11.07;72.31
7109;BME280;29079;41.930;25.558;2023-10-13T02:37:18;100032.28;;;10.28;75.99
7109;BME280;29079;41.930;25.558;2023-10-13T02:40:07;100027.56;;;10.09;76.59
7109;BME280;29079;41.930;25.558;2023-10-13T02:42:55;100023.66;;;9.91;76.87
7109;BME280;29079;41.930;25.558;2023-10-13T02:45:51;100024.66;;;10.47;74.11
7109;BME280;29079;41.930;25.558;2023-10-13T02:48:45;100029.88;;;10.14;75.32
7109;BME280;29079;41.930;25.558;2023-10-13T02:51:39;100030.84;;;10.47;74.93
7109;BME280;29079;41.930;25.558;2023-10-13T02:54:30;100029.88;;;10.14;75.31
7109;BME280;29079;41.930;25.558;2023-10-13T02:57:26;100037.16;;;10.35;75.33
7109;BME280;29079;41.930;25.558;2023-10-13T03:00:14;100042.44;;;10.12;75.45
7109;BME280;29079;41.930;25.558;2023-10-13T03:03:03;100045.50;;;10.07;76.28
7109;BME280;29079;41.930;25.558;2023-10-13T03:05:54;100034.94;;;10.28;75.86
7109;BME280;29079;41.930;25.558;2023-10-13T03:08:46;100034.94;;;10.51;76.19
7109;BME280;29079;41.930;25.558;2023-10-13T03:11:33;100035.81;;;9.95;77.38
7109;BME280;29079;41.930;25.558;2023-10-13T03:14:22;100044.41;;;10.33;78.45
7109;BME280;29079;41.930;25.558;2023-10-13T03:17:16;100026.34;;;10.02;76.65
7109;BME280;29079;41.930;25.558;2023-10-13T03:20:07;100026.69;;;9.86;76.86
7109;BME280;29079;41.930;25.558;2023-10-13T03:22:59;99950.09;;;9.43;76.90
7109;BME280;29079;41.930;25.558;2023-10-13T03:25:47;100041.72;;;9.87;76.92
7109;BME280;29079;41.930;25.558;2023-10-13T03:28:37;100040.47;;;9.57;78.33
7109;BME280;29079;41.930;25.558;2023-10-13T03:31:24;100037.25;;;10.10;78.88
7109;BME280;29079;41.930;25.558;2023-10-13T03:34:15;100036.13;;;9.79;76.98
7109;BME280;29079;41.930;25.558;2023-10-13T03:37:06;100039.41;;;9.83;76.87
7109;BME280;29079;41.930;25.558;2023-10-13T03:40:07;99961.16;;;9.14;78.60
7109;BME280;29079;41.930;25.558;2023-10-13T03:43:16;100030.53;;;9.59;79.04
7109;BME280;29079;41.930;25.558;2023-10-13T03:46:08;100032.34;;;9.59;79.45
7109;BME280;29079;41.930;25.558;2023-10-13T03:48:56;100025.59;;;9.89;77.59
7109;BME280;29079;41.930;25.558;2023-10-13T03:51:48;100026.88;;;9.49;79.13
7109;BME280;29079;41.930;25.558;2023-10-13T03:54:40;100026.41;;;9.67;79.12
7109;BME280;29079;41.930;25.558;2023-10-13T03:57:30;100034.28;;;9.68;78.51
7109;BME280;29079;41.930;25.558;2023-10-13T04:00:20;100010.66;;;9.64;78.47
7109;BME280;29079;41.930;25.558;2023-10-13T04:03:13;100028.72;;;9.71;77.92
7109;BME280;29079;41.930;25.558;2023-10-13T04:06:05;100025.66;;;9.53;77.66
7109;BME280;29079;41.930;25.558;2023-10-13T04:08:54;99966.00;;;9.20;78.59
7109;BME280;29079;41.930;25.558;2023-10-13T04:11:56;100043.00;;;9.59;77.68
7109;BME280;29079;41.930;25.558;2023-10-13T04:15:03;100043.72;;;9.50;77.72
7109;BME280;29079;41.930;25.558;2023-10-13T04:18:08;100037.59;;;9.83;76.83
7109;BME280;29079;41.930;25.558;2023-10-13T04:21:20;100039.72;;;9.55;78.07
7109;BME280;29079;41.930;25.558;2023-10-13T04:24:14;100035.91;;;9.82;77.37
7109;BME280;29079;41.930;25.558;2023-10-13T04:27:15;100038.94;;;10.00;75.79
7109;BME280;29079;41.930;25.558;2023-10-13T04:30:07;100040.38;;;9.70;77.66
7109;BME280;29079;41.930;25.558;2023-10-13T04:33:06;100024.19;;;9.49;78.17
7109;BME280;29079;41.930;25.558;2023-10-13T04:36:04;100043.88;;;9.71;77.53
7109;BME280;29079;41.930;25.558;2023-10-13T04:39:00;100051.88;;;9.71;76.92
7109;BME280;29079;41.930;25.558;2023-10-13T04:41:56;100053.91;;;9.56;78.57
7109;BME280;29079;41.930;25.558;2023-10-13T04:44:57;100054.94;;;9.42;79.01
7109;BME280;29079;41.930;25.558;2023-10-13T04:47:49;100064.16;;;9.49;78.35
7109;BME280;29079;41.930;25.558;2023-10-13T04:50:45;100066.22;;;9.46;79.64
7109;BME280;29079;41.930;25.558;2023-10-13T04:53:34;100077.31;;;9.39;79.13
7109;BME280;29079;41.930;25.558;2023-10-13T04:56:21;100068.66;;;9.49;79.74
7109;BME280;29079;41.930;25.558;2023-10-13T04:59:24;100064.91;;;9.51;80.04
7109;BME280;29079;41.930;25.558;2023-10-13T05:02:46;100074.56;;;9.88;79.90
7109;BME280;29079;41.930;25.558;2023-10-13T05:06:02;100077.09;;;9.78;78.52
7109;BME280;29079;41.930;25.558;2023-10-13T05:09:21;100093.00;;;9.55;79.94
7109;BME280;29079;41.930;25.558;2023-10-13T05:12:26;100083.25;;;9.79;78.66
7109;BME280;29079;41.930;25.558;2023-10-13T05:15:33;100071.25;;;9.62;78.89
7109;BME280;29079;41.930;25.558;2023-10-13T05:18:39;100075.88;;;9.82;77.85
7109;BME280;29079;41.930;25.558;2023-10-13T05:21:44;100081.34;;;10.03;78.06
7109;BME280;29079;41.930;25.558;2023-10-13T05:24:49;100084.25;;;9.89;78.01
7109;BME280;29079;41.930;25.558;2023-10-13T05:27:54;100088.03;;;9.98;78.66
7109;BME280;29079;41.930;25.558;2023-10-13T05:31:23;100084.94;;;10.38;77.64
7109;BME280;29079;41.930;25.558;2023-10-13T05:34:28;100078.22;;;10.32;77.67
7109;BME280;29079;41.930;25.558;2023-10-13T05:37:34;100087.09;;;10.55;76.95
7109;BME280;29079;41.930;25.558;2023-10-13T05:40:39;100087.34;;;10.75;76.19
7109;BME280;29079;41.930;25.558;2023-10-13T05:43:45;100103.38;;;11.19;76.28
7109;BME280;29079;41.930;25.558;2023-10-13T05:46:52;100097.69;;;11.01;75.61
7109;BME280;29079;41.930;25.558;2023-10-13T05:50:09;100095.41;;;11.07;76.02
7109;BME280;29079;41.930;25.558;2023-10-13T05:53:15;100091.91;;;10.95;76.82
7109;BME280;29079;41.930;25.558;2023-10-13T05:56:20;100089.63;;;11.23;76.44
7109;BME280;29079;41.930;25.558;2023-10-13T05:59:26;100095.63;;;11.48;76.02
7109;BME280;29079;41.930;25.558;2023-10-13T06:02:33;100094.81;;;11.36;76.39
7109;BME280;29079;41.930;25.558;2023-10-13T06:05:38;100094.28;;;11.21;76.33
7109;BME280;29079;41.930;25.558;2023-10-13T06:08:44;100072.53;;;11.14;76.80
7109;BME280;29079;41.930;25.558;2023-10-13T06:11:49;100081.47;;;11.57;76.07
7109;BME280;29079;41.930;25.558;2023-10-13T06:14:54;100100.66;;;11.83;75.46
7109;BME280;29079;41.930;25.558;2023-10-13T06:18:02;100100.72;;;11.72;76.06
7109;BME280;29079;41.930;25.558;2023-10-13T06:21:07;100094.03;;;11.78;76.71
7109;BME280;29079;41.930;25.558;2023-10-13T06:24:13;100110.69;;;12.02;75.28
7109;BME280;29079;41.930;25.558;2023-10-13T06:27:19;100113.38;;;11.91;75.86
7109;BME280;29079;41.930;25.558;2023-10-13T06:30:24;100102.00;;;12.41;75.78
7109;BME280;29079;41.930;25.558;2023-10-13T06:33:14;100090.66;;;12.28;74.04
7109;BME280;29079;41.930;25.558;2023-10-13T06:36:04;100079.56;;;12.01;74.99
7109;BME280;29079;41.930;25.558;2023-10-13T06:38:56;100111.41;;;12.66;74.43
7109;BME280;29079;41.930;25.558;2023-10-13T06:42:04;100113.66;;;12.40;75.70
7109;BME280;29079;41.930;25.558;2023-10-13T06:44:52;100096.13;;;12.57;74.58
7109;BME280;29079;41.930;25.558;2023-10-13T06:47:40;100116.06;;;12.74;74.88
7109;BME280;29079;41.930;25.558;2023-10-13T06:50:31;100110.13;;;12.70;75.25
7109;BME280;29079;41.930;25.558;2023-10-13T06:53:25;100079.03;;;12.89;74.40
7109;BME280;29079;41.930;25.558;2023-10-13T06:56:16;100103.19;;;13.09;74.60
7109;BME280;29079;41.930;25.558;2023-10-13T06:59:08;100093.03;;;13.12;74.25
7109;BME280;29079;41.930;25.558;2023-10-13T07:01:56;100099.56;;;13.49;73.48
7109;BME280;29079;41.930;25.558;2023-10-13T07:05:09;100103.69;;;13.63;73.13
7109;BME280;29079;41.930;25.558;2023-10-13T07:07:59;100107.78;;;13.67;73.23
7109;BME280;29079;41.930;25.558;2023-10-13T07:10:52;100110.31;;;13.68;73.63
7109;BME280;29079;41.930;25.558;2023-10-13T07:13:48;100109.03;;;13.72;73.92
7109;BME280;29079;41.930;25.558;2023-10-13T07:16:44;100110.56;;;13.95;73.29
7109;BME280;29079;41.930;25.558;2023-10-13T07:19:45;100104.00;;;14.07;71.93
7109;BME280;29079;41.930;25.558;2023-10-13T07:22:39;100114.41;;;14.30;71.50
7109;BME280;29079;41.930;25.558;2023-10-13T07:25:51;100103.31;;;14.52;71.09
7109;BME280;29079;41.930;25.558;2023-10-13T07:28:40;100086.75;;;14.57;69.83
7109;BME280;29079;41.930;25.558;2023-10-13T07:31:30;100106.34;;;14.77;70.39
7109;BME280;29079;41.930;25.558;2023-10-13T07:34:18;100103.09;;;15.01;69.43
7109;BME280;29079;41.930;25.558;2023-10-13T07:37:13;100101.59;;;15.17;69.09
7109;BME280;29079;41.930;25.558;2023-10-13T07:40:03;100074.91;;;15.23;67.34
7109;BME280;29079;41.930;25.558;2023-10-13T07:43:09;100100.25;;;15.57;67.35
7109;BME280;29079;41.930;25.558;2023-10-13T07:45:58;100096.50;;;15.67;67.50
7109;BME280;29079;41.930;25.558;2023-10-13T07:48:46;100094.97;;;15.65;67.40
7109;BME280;29079;41.930;25.558;2023-10-13T07:51:38;100101.72;;;15.87;65.65
7109;BME280;29079;41.930;25.558;2023-10-13T07:54:30;100096.56;;;16.20;64.48
7109;BME280;29079;41.930;25.558;2023-10-13T07:57:18;100095.81;;;16.36;63.84
7109;BME280;29079;41.930;25.558;2023-10-13T08:00:15;100096.31;;;16.31;63.12
7109;BME280;29079;41.930;25.558;2023-10-13T08:03:14;100083.47;;;16.60;61.94
7109;BME280;29079;41.930;25.558;2023-10-13T08:06:30;100094.28;;;16.68;61.98
7109;BME280;29079;41.930;25.558;2023-10-13T08:09:18;100107.44;;;16.71;61.65
7109;BME280;29079;41.930;25.558;2023-10-13T08:12:18;100094.66;;;16.81;60.71
7109;BME280;29079;41.930;25.558;2023-10-13T08:15:09;100103.19;;;17.03;59.78
7109;BME280;29079;41.930;25.558;2023-10-13T08:18:09;100109.97;;;17.15;59.39
7109;BME280;29079;41.930;25.558;2023-10-13T08:21:04;100108.63;;;17.11;60.37
7109;BME280;29079;41.930;25.558;2023-10-13T08:23:52;100099.00;;;17.09;61.07
7109;BME280;29079;41.930;25.558;2023-10-13T08:26:53;100111.34;;;17.28;59.02
7109;BME280;29079;41.930;25.558;2023-10-13T08:29:58;100104.94;;;17.29;59.52
7109;BME280;29079;41.930;25.558;2023-10-13T08:33:06;100049.47;;;17.10;58.98
7109;BME280;29079;41.930;25.558;2023-10-13T08:36:07;100093.16;;;17.46;59.23
7109;BME280;29079;41.930;25.558;2023-10-13T08:39:16;100095.69;;;17.89;56.99
7109;BME280;29079;41.930;25.558;2023-10-13T08:42:30;100013.75;;;17.49;57.31
7109;BME280;29079;41.930;25.558;2023-10-13T08:45:40;100079.00;;;18.02;56.97
7109;BME280;29079;41.930;25.558;2023-10-13T08:48:41;100075.41;;;18.18;56.24
7109;BME280;29079;41.930;25.558;2023-10-13T08:51:35;100072.88;;;18.16;55.71
7109;BME280;29079;41.930;25.558;2023-10-13T08:54:36;100080.16;;;18.16;56.83
7109;BME280;29079;41.930;25.558;2023-10-13T08:57:32;100076.75;;;18.22;55.97
7109;BME280;29079;41.930;25.558;2023-10-13T09:00:21;100072.81;;;18.41;55.23
7109;BME280;29079;41.930;25.558;2023-10-13T09:03:36;100070.09;;;18.49;55.23
7109;BME280;29079;41.930;25.558;2023-10-13T09:06:27;100075.84;;;18.46;55.75
7109;BME280;29079;41.930;25.558;2023-10-13T09:09:17;100073.59;;;18.66;54.75
7109;BME280;29079;41.930;25.558;2023-10-13T09:12:13;100062.25;;;18.62;55.33
7109;BME280;29079;41.930;25.558;2023-10-13T09:15:05;100046.00;;;18.71;54.41
7109;BME280;29079;41.930;25.558;2023-10-13T09:18:04;100060.47;;;18.86;53.90
7109;BME280;29079;41.930;25.558;2023-10-13T09:20:59;100060.25;;;18.96;53.39
7109;BME280;29079;41.930;25.558;2023-10-13T09:24:10;100062.00;;;18.89;53.64
7109;BME280;29079;41.930;25.558;2023-10-13T09:27:11;100048.31;;;18.82;54.26
7109;BME280;29079;41.930;25.558;2023-10-13T09:30:01;100049.81;;;19.16;53.16
7109;BME280;29079;41.930;25.558;2023-10-13T09:32:59;100046.69;;;19.04;54.47
7109;BME280;29079;41.930;25.558;2023-10-13T09:35:49;100052.94;;;19.05;53.99
7109;BME280;29079;41.930;25.558;2023-10-13T09:38:37;100040.34;;;19.43;53.29
7109;BME280;29079;41.930;25.558;2023-10-13T09:41:29;100029.31;;;19.45;52.65
7109;BME280;29079;41.930;25.558;2023-10-13T09:44:20;100041.44;;;19.72;51.95
7109;BME280;29079;41.930;25.558;2023-10-13T09:47:10;100045.16;;;19.71;51.62
7109;BME280;29079;41.930;25.558;2023-10-13T09:50:08;100037.00;;;19.94;51.22
7109;BME280;29079;41.930;25.558;2023-10-13T09:53:01;100028.78;;;20.03;50.79
7109;BME280;29079;41.930;25.558;2023-10-13T09:55:56;100031.78;;;20.08;50.54
7109;BME280;29079;41.930;25.558;2023-10-13T09:59:01;100024.97;;;19.97;51.51
7109;BME280;29079;41.930;25.558;2023-10-13T10:01:56;100030.22;;;19.98;50.64
7109;BME280;29079;41.930;25.558;2023-10-13T10:04:51;100014.09;;;19.82;50.65
7109;BME280;29079;41.930;25.558;2023-10-13T10:07:39;100010.75;;;19.80;51.29
7109;BME280;29079;41.930;25.558;2023-10-13T10:10:35;100024.38;;;19.87;51.22
7109;BME280;29079;41.930;25.558;2023-10-13T10:13:35;100013.19;;;20.05;51.53
7109;BME280;29079;41.930;25.558;2023-10-13T10:16:39;100003.13;;;19.98;51.96
7109;BME280;29079;41.930;25.558;2023-10-13T10:19:46;99995.38;;;19.95;52.19
7109;BME280;29079;41.930;25.558;2023-10-13T10:22:34;100009.59;;;20.64;49.93
7109;BME280;29079;41.930;25.558;2023-10-13T10:25:28;100007.66;;;20.73;49.62
7109;BME280;29079;41.930;25.558;2023-10-13T10:28:21;100005.06;;;20.86;48.85
7109;BME280;29079;41.930;25.558;2023-10-13T10:31:09;100000.03;;;20.83;48.80
7109;BME280;29079;41.930;25.558;2023-10-13T10:34:11;99994.91;;;20.73;50.12
7109;BME280;29079;41.930;25.558;2023-10-13T10:37:03;99978.78;;;20.86;48.90
7109;BME280;29079;41.930;25.558;2023-10-13T10:39:55;99987.78;;;20.87;49.71
7109;BME280;29079;41.930;25.558;2023-10-13T10:42:47;99983.69;;;20.98;49.16
7109;BME280;29079;41.930;25.558;2023-10-13T10:45:38;99989.31;;;21.18;47.89
7109;BME280;29079;41.930;25.558;2023-10-13T10:48:32;99986.84;;;21.23;48.81
7109;BME280;29079;41.930;25.558;2023-10-13T10:51:21;99980.09;;;21.12;48.16
7109;BME280;29079;41.930;25.558;2023-10-13T10:54:19;99969.03;;;21.35;47.69
7109;BME280;29079;41.930;25.558;2023-10-13T10:57:08;99961.38;;;21.46;47.55
7109;BME280;29079;41.930;25.558;2023-10-13T10:59:59;99958.88;;;21.72;46.49
7109;BME280;29079;41.930;25.558;2023-10-13T11:02:58;99953.94;;;21.54;46.55
7109;BME280;29079;41.930;25.558;2023-10-13T11:05:47;99950.09;;;21.70;46.01
7109;BME280;29079;41.930;25.558;2023-10-13T11:08:36;99955.91;;;21.67;45.61
7109;BME280;29079;41.930;25.558;2023-10-13T11:11:30;99953.25;;;21.74;45.08
7109;BME280;29079;41.930;25.558;2023-10-13T11:14:23;99918.03;;;21.52;45.74
7109;BME280;29079;41.930;25.558;2023-10-13T11:17:11;99946.78;;;21.75;45.23
7109;BME280;29079;41.930;25.558;2023-10-13T11:20:09;99919.19;;;21.71;45.10
7109;BME280;29079;41.930;25.558;2023-10-13T11:23:10;99931.88;;;22.06;44.55
7109;BME280;29079;41.930;25.558;2023-10-13T11:25:59;99935.97;;;21.88;44.95
7109;BME280;29079;41.930;25.558;2023-10-13T11:28:51;99923.97;;;21.41;46.72
7109;BME280;29079;41.930;25.558;2023-10-13T11:31:42;99924.38;;;21.45;46.44
7109;BME280;29079;41.930;25.558;2023-10-13T11:34:30;99919.72;;;21.60;46.07
7109;BME280;29079;41.930;25.558;2023-10-13T11:37:27;99929.72;;;21.53;46.14
7109;BME280;29079;41.930;25.558;2023-10-13T11:40:24;99929.28;;;21.84;45.90
7109;BME280;29079;41.930;25.558;2023-10-13T11:43:26;99923.94;;;21.63;45.45
7109;BME280;29079;41.930;25.558;2023-10-13T11:46:18;99912.94;;;21.78;44.52
7109;BME280;29079;41.930;25.558;2023-10-13T11:49:27;99905.63;;;21.78;45.58
7109;BME280;29079;41.930;25.558;2023-10-13T11:52:24;99914.59;;;21.72;45.41
7109;BME280;29079;41.930;25.558;2023-10-13T11:55:14;99924.78;;;22.05;43.30
7109;BME280;29079;41.930;25.558;2023-10-13T11:58:04;99908.44;;;21.91;42.50
7109;BME280;29079;41.930;25.558;2023-10-13T12:00:52;99914.50;;;21.94;42.97
7109;BME280;29079;41.930;25.558;2023-10-13T12:03:55;99913.69;;;21.65;44.81
7109;BME280;29079;41.930;25.558;2023-10-13T12:07:04;99914.59;;;21.44;46.55
7109;BME280;29079;41.930;25.558;2023-10-13T12:10:01;99909.69;;;21.32;47.11
7109;BME280;29079;41.930;25.558;2023-10-13T12:12:53;99913.09;;;21.41;44.13
7109;BME280;29079;41.930;25.558;2023-10-13T12:15:41;99912.81;;;21.29;47.12
7109;BME280;29079;41.930;25.558;2023-10-13T12:18:38;99908.28;;;21.36;45.70
7109;BME280;29079;41.930;25.558;2023-10-13T12:21:29;99905.38;;;21.45;44.78
7109;BME280;29079;41.930;25.558;2023-10-13T12:24:17;99906.38;;;22.00;42.54
7109;BME280;29079;41.930;25.558;2023-10-13T12:27:17;99899.22;;;21.86;43.49
7109;BME280;29079;41.930;25.558;2023-10-13T12:30:10;99909.25;;;21.92;43.00
7109;BME280;29079;41.930;25.558;2023-10-13T12:33:00;99910.56;;;22.03;42.31
7109;BME280;29079;41.930;25.558;2023-10-13T12:35:58;99905.56;;;22.06;42.43
7109;BME280;29079;41.930;25.558;2023-10-13T12:39:03;99870.41;;;21.98;41.20
7109;BME280;29079;41.930;25.558;2023-10-13T12:42:10;99910.09;;;21.92;43.84
7109;BME280;29079;41.930;25.558;2023-10-13T12:45:16;99913.63;;;21.86;44.68
7109;BME280;29079;41.930;25.558;2023-10-13T12:48:22;99891.69;;;21.88;44.57
7109;BME280;29079;41.930;25.558;2023-10-13T12:51:28;99913.63;;;21.86;45.12
7109;BME280;29079;41.930;25.558;2023-10-13T12:54:38;99909.81;;;21.81;46.98
7109;BME280;29079;41.930;25.558;2023-10-13T12:57:27;99896.81;;;21.69;44.53
7109;BME280;29079;41.930;25.558;2023-10-13T13:00:15;99894.09;;;21.69;45.02
7109;BME280;29079;41.930;25.558;2023-10-13T13:03:20;99908.06;;;21.66;47.27
7109;BME280;29079;41.930;25.558;2023-10-13T13:06:08;99903.19;;;21.55;48.46
7109;BME280;29079;41.930;25.558;2023-10-13T13:09:04;99897.75;;;21.55;49.65
7109;BME280;29079;41.930;25.558;2023-10-13T13:11:57;99898.03;;;22.08;44.38
7109;BME280;29079;41.930;25.558;2023-10-13T13:14:45;99886.63;;;21.78;47.36
7109;BME280;29079;41.930;25.558;2023-10-13T13:17:33;99887.19;;;21.67;48.23
7109;BME280;29079;41.930;25.558;2023-10-13T13:20:21;99882.81;;;21.66;45.69
7109;BME280;29079;41.930;25.558;2023-10-13T13:23:14;99896.50;;;21.86;44.74
7109;BME280;29079;41.930;25.558;2023-10-13T13:26:04;99895.72;;;21.64;46.32
7109;BME280;29079;41.930;25.558;2023-10-13T13:29:03;99885.50;;;21.37;49.52
7109;BME280;29079;41.930;25.558;2023-10-13T13:31:51;99887.44;;;21.44;48.67
7109;BME280;29079;41.930;25.558;2023-10-13T13:34:39;99890.16;;;21.44;48.64
7109;BME280;29079;41.930;25.558;2023-10-13T13:37:27;99868.16;;;21.60;46.73
7109;BME280;29079;41.930;25.558;2023-10-13T13:40:15;99881.16;;;21.71;48.05
7109;BME280;29079;41.930;25.558;2023-10-13T13:43:08;99889.19;;;21.51;49.79
7109;BME280;29079;41.930;25.558;2023-10-13T13:46:05;99887.75;;;21.55;51.52
7109;BME280;29079;41.930;25.558;2023-10-13T13:48:57;99885.16;;;21.47;51.32
7109;BME280;29079;41.930;25.558;2023-10-13T13:51:48;99882.75;;;21.59;48.55
7109;BME280;29079;41.930;25.558;2023-10-13T13:54:38;99878.94;;;21.53;48.92
7109;BME280;29079;41.930;25.558;2023-10-13T13:57:27;99872.50;;;21.54;48.76
7109;BME280;29079;41.930;25.558;2023-10-13T14:00:17;99875.97;;;21.48;50.50
7109;BME280;29079;41.930;25.558;2023-10-13T14:03:11;99885.16;;;21.47;52.74
7109;BME280;29079;41.930;25.558;2023-10-13T14:06:19;99880.31;;;21.43;49.47
7109;BME280;29079;41.930;25.558;2023-10-13T14:09:11;99870.69;;;21.33;53.63
7109;BME280;29079;41.930;25.558;2023-10-13T14:12:08;99875.00;;;21.28;52.89
7109;BME280;29079;41.930;25.558;2023-10-13T14:15:22;99881.19;;;21.15;54.62
7109;BME280;29079;41.930;25.558;2023-10-13T14:18:12;99877.94;;;21.26;53.90
7109;BME280;29079;41.930;25.558;2023-10-13T14:21:04;99880.78;;;21.18;55.37
7109;BME280;29079;41.930;25.558;2023-10-13T14:23:52;99876.78;;;21.14;55.64
7109;BME280;29079;41.930;25.558;2023-10-13T14:26:41;99879.00;;;21.03;55.75
7109;BME280;29079;41.930;25.558;2023-10-13T14:29:30;99872.28;;;20.99;56.85
7109;BME280;29079;41.930;25.558;2023-10-13T14:32:19;99879.13;;;20.95;57.36
7109;BME280;29079;41.930;25.558;2023-10-13T14:35:13;99874.69;;;20.87;57.94
7109;BME280;29079;41.930;25.558;2023-10-13T14:38:02;99867.78;;;20.85;58.44
7109;BME280;29079;41.930;25.558;2023-10-13T14:40:56;99876.44;;;20.74;59.82
7109;BME280;29079;41.930;25.558;2023-10-13T14:43:44;99869.34;;;20.73;60.09
7109;BME280;29079;41.930;25.558;2023-10-13T14:46:35;99875.88;;;20.63;60.69
7109;BME280;29079;41.930;25.558;2023-10-13T14:49:26;99859.50;;;20.50;61.76
7109;BME280;29079;41.930;25.558;2023-10-13T14:52:16;99875.16;;;20.55;61.75
7109;BME280;29079;41.930;25.558;2023-10-13T14:55:04;99852.84;;;20.31;62.42
7109;BME280;29079;41.930;25.558;2023-10-13T14:57:53;99876.44;;;20.37;63.49
7109;BME280;29079;41.930;25.558;2023-10-13T15:00:41;99861.25;;;20.21;63.40
7109;BME280;29079;41.930;25.558;2023-10-13T15:03:32;99876.50;;;20.22;64.08
7109;BME280;29079;41.930;25.558;2023-10-13T15:06:25;99881.09;;;20.22;64.44
7109;BME280;29079;41.930;25.558;2023-10-13T15:09:17;99879.88;;;20.46;64.74
7109;BME280;29079;41.930;25.558;2023-10-13T15:12:10;99884.97;;;20.34;65.42
7109;BME280;29079;41.930;25.558;2023-10-13T15:15:05;99885.25;;;20.24;65.73
7109;BME280;29079;41.930;25.558;2023-10-13T15:17:59;99889.56;;;20.18;66.47
7109;BME280;29079;41.930;25.558;2023-10-13T15:20:48;99881.69;;;20.02;66.83